createdAt,value
2023-05-14T00:00:56.103Z,60.90
2023-05-14T00:01:56.078Z,60.83
2023-05-14T00:02:56.437Z,60.63
2023-05-14T00:03:56.504Z,60.75
2023-05-14T00:04:56.598Z,60.97
2023-05-14T00:05:56.786Z,60.94
2023-05-14T00:06:56.936Z,60.93
2023-05-14T00:07:57.131Z,60.67
2023-05-14T00:08:57.287Z,60.89
2023-05-14T00:09:57.469Z,60.87
2023-05-14T00:10:57.651Z,60.82
2023-05-14T00:11:57.818Z,60.44
2023-05-14T00:12:57.996Z,60.33
2023-05-14T00:13:58.170Z,60.27
2023-05-14T00:14:58.360Z,60.31
2023-05-14T00:15:58.584Z,60.38
2023-05-14T00:16:58.701Z,60.51
2023-05-14T00:17:58.899Z,60.85
2023-05-14T00:18:59.088Z,61.05
2023-05-14T00:19:59.235Z,60.78
2023-05-14T00:20:59.425Z,60.93
2023-05-14T00:21:59.590Z,61.06
2023-05-14T00:22:59.765Z,61.10
2023-05-14T00:23:59.946Z,60.86
2023-05-14T00:25:00.163Z,60.87
2023-05-14T00:26:00.457Z,60.89
2023-05-14T00:27:00.493Z,60.93
2023-05-14T00:28:00.648Z,61.12
2023-05-14T00:29:00.827Z,61.23
2023-05-14T00:30:01.090Z,61.32
2023-05-14T00:31:01.202Z,61.35
2023-05-14T00:32:01.344Z,61.17
2023-05-14T00:33:01.733Z,60.92
2023-05-14T00:34:01.726Z,60.84
2023-05-14T00:35:01.893Z,61.02
2023-05-14T00:36:02.217Z,61.17
2023-05-14T00:37:02.261Z,61.50
2023-05-14T00:38:02.435Z,61.49
2023-05-14T00:39:02.591Z,61.55
2023-05-14T00:40:02.810Z,61.49
2023-05-14T00:41:02.964Z,61.27
2023-05-14T00:42:03.128Z,61.21
2023-05-14T00:43:03.315Z,61.33
2023-05-14T00:44:03.501Z,61.12
2023-05-14T00:45:03.688Z,61.11
2023-05-14T00:46:03.851Z,61.20
2023-05-14T00:47:04.082Z,61.03
2023-05-14T00:48:04.236Z,61.20
2023-05-14T00:49:04.466Z,60.89
2023-05-14T00:50:04.583Z,60.80
2023-05-14T00:51:04.762Z,60.78
2023-05-14T00:52:04.938Z,60.92
2023-05-14T00:53:05.133Z,61.03
2023-05-14T00:54:05.211Z,61.20
2023-05-14T00:55:05.273Z,61.35
2023-05-14T00:56:05.333Z,61.28
2023-05-14T00:57:05.397Z,61.44
2023-05-14T00:58:05.465Z,61.50
2023-05-14T00:59:05.530Z,61.53
2023-05-14T01:00:05.594Z,61.54
2023-05-14T01:01:05.688Z,61.44
2023-05-14T01:02:05.707Z,61.49
2023-05-14T01:03:05.811Z,61.45
2023-05-14T01:04:05.948Z,61.48
2023-05-14T01:05:06.099Z,61.47
2023-05-14T01:06:06.271Z,61.35
2023-05-14T01:07:06.460Z,61.16
2023-05-14T01:08:06.659Z,61.20
2023-05-14T01:09:06.846Z,61.49
2023-05-14T01:10:07.038Z,61.78
2023-05-14T01:11:07.218Z,61.88
2023-05-14T01:12:07.406Z,61.84
2023-05-14T01:13:07.591Z,61.68
2023-05-14T01:14:07.766Z,61.82
2023-05-14T01:15:07.951Z,61.65
2023-05-14T01:16:08.147Z,61.66
2023-05-14T01:17:08.317Z,61.78
2023-05-14T01:18:08.532Z,61.68
2023-05-14T01:19:08.711Z,61.58
2023-05-14T01:20:08.862Z,61.57
2023-05-14T01:21:09.036Z,61.34
2023-05-14T01:22:09.219Z,61.68
2023-05-14T01:23:09.408Z,61.50
2023-05-14T01:24:09.602Z,61.60
2023-05-14T01:25:09.770Z,61.86
2023-05-14T01:26:09.927Z,61.77
2023-05-14T01:27:10.105Z,61.62
2023-05-14T01:28:10.283Z,61.61
2023-05-14T01:29:10.461Z,61.34
2023-05-14T01:30:10.650Z,61.11
2023-05-14T01:31:10.811Z,61.15
2023-05-14T01:32:11.054Z,61.26
2023-05-14T01:33:11.173Z,61.20
2023-05-14T01:34:11.353Z,61.23
2023-05-14T01:35:11.544Z,61.27
2023-05-14T01:36:11.710Z,61.31
2023-05-14T01:37:11.887Z,61.23
2023-05-14T01:38:12.077Z,61.08
2023-05-14T01:39:12.260Z,61.16
2023-05-14T01:40:12.468Z,61.11
2023-05-14T01:41:12.650Z,61.16
2023-05-14T01:42:12.853Z,61.30
2023-05-14T01:43:13.062Z,61.07
2023-05-14T01:44:13.222Z,61.10
2023-05-14T01:45:13.399Z,61.15
2023-05-14T01:46:13.608Z,61.33
2023-05-14T01:47:13.782Z,61.23
2023-05-14T01:48:13.944Z,61.37
2023-05-14T01:49:14.141Z,61.48
2023-05-14T01:50:14.322Z,61.47
2023-05-14T01:51:14.513Z,61.63
2023-05-14T01:52:14.691Z,61.77
2023-05-14T01:53:14.873Z,61.61
2023-05-14T01:54:15.042Z,61.67
2023-05-14T01:55:15.223Z,61.65
2023-05-14T01:56:15.398Z,61.51
2023-05-14T01:57:15.584Z,61.31
2023-05-14T01:58:15.780Z,60.92
2023-05-14T01:59:15.979Z,60.75
2023-05-14T02:00:16.150Z,60.87
2023-05-14T02:01:16.376Z,61.00
2023-05-14T02:02:16.526Z,61.16
2023-05-14T02:03:16.707Z,61.10
2023-05-14T02:04:16.963Z,61.08
2023-05-14T02:05:17.101Z,61.33
2023-05-14T02:06:17.281Z,61.51
2023-05-14T02:07:17.458Z,61.56
2023-05-14T02:08:17.649Z,61.40
2023-05-14T02:09:17.846Z,61.29
2023-05-14T02:10:18.008Z,61.35
2023-05-14T02:11:18.192Z,61.25
2023-05-14T02:12:18.367Z,61.30
2023-05-14T02:13:18.543Z,61.27
2023-05-14T02:14:18.725Z,61.32
2023-05-14T02:15:18.898Z,61.27
2023-05-14T02:16:19.141Z,61.21
2023-05-14T02:17:19.261Z,61.12
2023-05-14T02:18:19.424Z,61.03
2023-05-14T02:19:19.599Z,60.80
2023-05-14T02:20:19.768Z,60.72
2023-05-14T02:21:19.954Z,60.72
2023-05-14T02:22:20.141Z,60.81
2023-05-14T02:23:25.609Z,60.93
2023-05-14T02:24:21.328Z,61.04
2023-05-14T02:25:20.325Z,61.07
2023-05-14T02:26:20.323Z,61.26
2023-05-14T02:27:20.315Z,61.39
2023-05-14T02:28:20.314Z,61.39
2023-05-14T02:29:20.384Z,61.17
2023-05-14T02:30:20.313Z,61.21
2023-05-14T02:31:20.371Z,61.17
2023-05-14T02:32:20.312Z,61.33
2023-05-14T02:33:20.475Z,61.34
2023-05-14T02:34:20.427Z,61.15
2023-05-14T02:35:20.493Z,61.28
2023-05-14T02:36:20.573Z,61.35
2023-05-14T02:37:20.624Z,61.42
2023-05-14T02:38:20.682Z,61.60
2023-05-14T02:39:20.759Z,61.59
2023-05-14T02:40:20.850Z,61.57
2023-05-14T02:41:20.878Z,61.57
2023-05-14T02:42:20.933Z,61.61
2023-05-14T02:43:20.992Z,61.70
2023-05-14T02:44:21.060Z,61.79
2023-05-14T02:45:21.109Z,61.51
2023-05-14T02:46:21.260Z,61.41
2023-05-14T02:47:21.322Z,61.51
2023-05-14T02:48:21.280Z,61.68
2023-05-14T02:49:21.316Z,61.76
2023-05-14T02:50:21.595Z,61.79
2023-05-14T02:51:21.416Z,61.48
2023-05-14T02:52:21.490Z,61.76
2023-05-14T02:53:21.550Z,61.63
2023-05-14T02:54:21.602Z,61.63
2023-05-14T02:55:21.656Z,61.55
2023-05-14T02:56:21.719Z,61.61
2023-05-14T02:57:21.766Z,61.58
2023-05-14T02:58:24.639Z,61.57
2023-05-14T02:59:22.832Z,61.52
2023-05-14T03:00:22.085Z,61.65
2023-05-14T03:01:21.929Z,61.51
2023-05-14T03:02:21.838Z,61.66
2023-05-14T03:03:21.844Z,61.36
2023-05-14T03:04:21.828Z,61.29
2023-05-14T03:05:21.815Z,61.28
2023-05-14T03:06:21.837Z,61.26
2023-05-14T03:07:21.878Z,61.10
2023-05-14T03:08:21.828Z,61.04
2023-05-14T03:09:21.906Z,61.10
2023-05-14T03:10:22.254Z,61.12
2023-05-14T03:11:22.031Z,61.28
2023-05-14T03:12:22.106Z,61.34
2023-05-14T03:13:22.168Z,61.34
2023-05-14T03:14:22.242Z,61.18
2023-05-14T03:15:22.306Z,61.30
2023-05-14T03:16:22.449Z,61.28
2023-05-14T03:17:22.460Z,61.40
2023-05-14T03:18:22.485Z,61.41
2023-05-14T03:19:22.551Z,61.46
2023-05-14T03:20:22.876Z,61.45
2023-05-14T03:21:22.759Z,61.55
2023-05-14T03:22:22.750Z,61.59
2023-05-14T03:23:22.807Z,61.66
2023-05-14T03:24:22.869Z,61.56
2023-05-14T03:25:22.939Z,61.52
2023-05-14T03:26:23.001Z,61.64
2023-05-14T03:27:23.111Z,61.57
2023-05-14T03:28:23.139Z,61.44
2023-05-14T03:29:23.263Z,61.44
2023-05-14T03:30:23.483Z,61.46
2023-05-14T03:31:23.356Z,61.39
2023-05-14T03:32:23.435Z,61.63
2023-05-14T03:33:23.541Z,61.56
2023-05-14T03:34:23.545Z,61.63
2023-05-14T03:35:23.624Z,61.58
2023-05-14T03:36:23.710Z,61.57
2023-05-14T03:37:23.761Z,61.37
2023-05-14T03:38:23.831Z,61.45
2023-05-14T03:39:23.999Z,61.50
2023-05-14T03:40:24.110Z,61.74
2023-05-14T03:41:24.037Z,61.99
2023-05-14T03:42:24.115Z,62.20
2023-05-14T03:43:24.166Z,62.16
2023-05-14T03:44:24.232Z,62.21
2023-05-14T03:45:24.278Z,62.20
2023-05-14T03:46:24.326Z,62.33
2023-05-14T03:47:24.396Z,62.41
2023-05-14T03:48:24.530Z,62.43
2023-05-14T03:49:24.518Z,62.31
2023-05-14T03:50:24.721Z,62.15
2023-05-14T03:51:24.686Z,62.33
2023-05-14T03:52:24.741Z,62.44
2023-05-14T03:53:24.732Z,62.25
2023-05-14T03:54:24.799Z,62.08
2023-05-14T03:55:24.866Z,62.25
2023-05-14T03:56:24.925Z,62.47
2023-05-14T03:57:24.992Z,62.41
2023-05-14T03:58:25.088Z,62.26
2023-05-14T03:59:25.104Z,62.17
2023-05-14T04:00:25.541Z,62.34
2023-05-14T04:01:25.225Z,62.50
2023-05-14T04:02:25.392Z,62.62
2023-05-14T04:03:25.527Z,62.76
2023-05-14T04:04:25.481Z,62.72
2023-05-14T04:05:25.456Z,62.48
2023-05-14T04:06:25.517Z,62.51
2023-05-14T04:07:25.579Z,62.49
2023-05-14T04:08:25.647Z,62.48
2023-05-14T04:09:25.696Z,62.40
2023-05-14T04:10:25.962Z,62.48
2023-05-14T04:11:25.800Z,62.46
2023-05-14T04:12:25.834Z,62.51
2023-05-14T04:13:25.912Z,62.30
2023-05-14T04:14:25.958Z,62.10
2023-05-14T04:15:26.035Z,62.06
2023-05-14T04:16:26.099Z,62.19
2023-05-14T04:17:26.226Z,62.20
2023-05-14T04:18:26.212Z,62.39
2023-05-14T04:19:26.234Z,62.61
2023-05-14T04:20:26.366Z,62.61
2023-05-14T04:21:26.367Z,62.50
2023-05-14T04:22:26.424Z,62.46
2023-05-14T04:23:26.504Z,62.73
2023-05-14T04:24:26.566Z,62.53
2023-05-14T04:25:26.650Z,62.39
2023-05-14T04:26:26.667Z,62.28
2023-05-14T04:27:26.730Z,62.12
2023-05-14T04:28:26.799Z,62.33
2023-05-14T04:29:26.852Z,62.21
2023-05-14T04:30:26.932Z,61.99
2023-05-14T04:31:27.092Z,61.94
2023-05-14T04:32:27.072Z,61.92
2023-05-14T04:33:27.076Z,61.98
2023-05-14T04:34:27.142Z,62.13
2023-05-14T04:35:27.201Z,61.76
2023-05-14T04:36:27.268Z,61.67
2023-05-14T04:37:27.425Z,61.71
2023-05-14T04:38:27.512Z,61.89
2023-05-14T04:39:27.711Z,61.90
2023-05-14T04:40:27.900Z,61.97
2023-05-14T04:41:28.098Z,62.00
2023-05-14T04:42:28.293Z,62.01
2023-05-14T04:43:28.388Z,62.10
2023-05-14T04:44:28.522Z,62.37
2023-05-14T04:45:28.530Z,62.11
2023-05-14T04:46:28.696Z,62.04
2023-05-14T04:47:28.657Z,62.27
2023-05-14T04:48:28.703Z,62.16
2023-05-14T04:49:28.768Z,62.24
2023-05-14T04:50:28.863Z,62.40
2023-05-14T04:51:28.907Z,62.24
2023-05-14T04:52:29.039Z,61.98
2023-05-14T04:53:29.021Z,61.94
2023-05-14T04:54:29.272Z,61.75
2023-05-14T04:55:29.420Z,61.71
2023-05-14T04:56:29.659Z,61.83
2023-05-14T04:57:29.785Z,62.03
2023-05-14T04:58:30.788Z,61.84
2023-05-14T04:59:30.026Z,61.71
2023-05-14T05:00:30.188Z,61.61
2023-05-14T05:01:30.188Z,61.66
2023-05-14T05:02:30.235Z,61.57
2023-05-14T05:03:30.423Z,61.27
2023-05-14T05:04:30.352Z,61.11
2023-05-14T05:05:30.431Z,61.11
2023-05-14T05:06:30.501Z,61.29
2023-05-14T05:07:30.580Z,61.29
2023-05-14T05:08:30.650Z,61.32
2023-05-14T05:09:30.831Z,61.56
2023-05-14T05:10:30.922Z,61.80
2023-05-14T05:11:31.138Z,61.82
2023-05-14T05:12:31.329Z,61.99
2023-05-14T05:13:31.458Z,61.97
2023-05-14T05:14:31.659Z,61.90
2023-05-14T05:15:31.868Z,61.88
2023-05-14T05:16:32.096Z,62.25
2023-05-14T05:17:32.189Z,62.26
2023-05-14T05:18:32.407Z,62.17
2023-05-14T05:19:42.536Z,62.28
2023-05-14T05:20:33.666Z,62.24
2023-05-14T05:21:32.530Z,62.31
2023-05-14T05:22:32.554Z,62.27
2023-05-14T05:23:32.557Z,61.78
2023-05-14T05:24:32.513Z,62.03
2023-05-14T05:25:32.522Z,62.26
2023-05-14T05:26:32.716Z,62.42
2023-05-14T05:27:32.526Z,62.14
2023-05-14T05:28:32.529Z,62.02
2023-05-14T05:29:32.701Z,62.24
2023-05-14T05:30:32.531Z,62.36
2023-05-14T05:31:32.636Z,62.63
2023-05-14T05:32:32.543Z,62.65
2023-05-14T05:33:32.550Z,62.45
2023-05-14T05:34:32.648Z,62.41
2023-05-14T05:35:32.634Z,62.40
2023-05-14T05:36:32.772Z,62.36
2023-05-14T05:37:32.702Z,62.27
2023-05-14T05:38:32.922Z,61.92
2023-05-14T05:39:32.804Z,61.82
2023-05-14T05:40:32.850Z,61.90
2023-05-14T05:41:32.932Z,61.77
2023-05-14T05:42:33.011Z,61.75
2023-05-14T05:43:33.123Z,61.67
2023-05-14T05:44:33.085Z,61.64
2023-05-14T05:45:33.111Z,61.42
2023-05-14T05:46:33.378Z,61.47
2023-05-14T05:47:33.222Z,61.69
2023-05-14T05:48:33.239Z,61.50
2023-05-14T05:49:33.259Z,61.68
2023-05-14T05:50:33.300Z,61.77
2023-05-14T05:51:33.567Z,61.58
2023-05-14T05:52:33.389Z,61.06
2023-05-14T05:53:33.419Z,60.83
2023-05-14T05:54:33.506Z,61.06
2023-05-14T05:55:33.568Z,61.31
2023-05-14T05:56:33.735Z,61.13
2023-05-14T05:57:34.098Z,61.04
2023-05-14T05:58:34.090Z,61.20
2023-05-14T05:59:34.281Z,61.21
2023-05-14T06:00:34.456Z,61.01
2023-05-14T06:01:34.633Z,61.07
2023-05-14T06:02:35.020Z,61.03
2023-05-14T06:03:34.996Z,61.18
2023-05-14T06:04:35.167Z,60.95
2023-05-14T06:05:35.478Z,60.99
2023-05-14T06:06:35.621Z,60.98
2023-05-14T06:07:35.804Z,61.04
2023-05-14T06:08:35.921Z,60.79
2023-05-14T06:09:36.477Z,60.79
2023-05-14T06:10:36.124Z,60.97
2023-05-14T06:11:36.754Z,61.18
2023-05-14T06:12:36.437Z,61.39
2023-05-14T06:13:36.240Z,61.57
2023-05-14T06:14:36.299Z,61.62
2023-05-14T06:15:36.346Z,61.47
2023-05-14T06:16:36.456Z,61.26
2023-05-14T06:17:36.511Z,61.20
2023-05-14T06:18:36.648Z,61.31
2023-05-14T06:19:36.762Z,61.45
2023-05-14T06:20:36.885Z,61.63
2023-05-14T06:21:37.013Z,61.80
2023-05-14T06:22:37.240Z,61.68
2023-05-14T06:23:37.346Z,61.52
2023-05-14T06:24:37.517Z,61.26
2023-05-14T06:25:37.690Z,61.32
2023-05-14T06:26:37.833Z,61.38
2023-05-14T06:27:38.173Z,61.29
2023-05-14T06:28:38.179Z,61.14
2023-05-14T06:29:38.358Z,60.61
2023-05-14T06:30:38.532Z,60.66
2023-05-14T06:31:38.733Z,60.61
2023-05-14T06:32:38.918Z,60.93
2023-05-14T06:33:39.283Z,61.13
2023-05-14T06:34:39.438Z,61.21
2023-05-14T06:35:39.365Z,61.62
2023-05-14T06:36:39.519Z,61.71
2023-05-14T06:37:39.696Z,61.73
2023-05-14T06:38:39.809Z,61.70
2023-05-14T06:39:40.093Z,61.61
2023-05-14T06:40:40.344Z,61.50
2023-05-14T06:41:40.262Z,61.26
2023-05-14T06:42:40.405Z,61.45
2023-05-14T06:43:40.546Z,61.18
2023-05-14T06:44:40.693Z,61.12
2023-05-14T06:45:40.845Z,61.16
2023-05-14T06:46:41.076Z,61.10
2023-05-14T06:47:41.213Z,61.12
2023-05-14T06:48:41.490Z,61.19
2023-05-14T06:49:41.421Z,61.18
2023-05-14T06:50:41.561Z,60.85
2023-05-14T06:51:41.714Z,60.79
2023-05-14T06:52:41.866Z,60.65
2023-05-14T06:53:42.029Z,60.79
2023-05-14T06:54:42.256Z,61.20
2023-05-14T06:55:42.426Z,61.66
2023-05-14T06:56:42.498Z,61.73
2023-05-14T06:57:42.630Z,61.61
2023-05-14T06:58:42.799Z,61.57
2023-05-14T06:59:42.949Z,61.51
2023-05-14T07:00:43.107Z,61.65
2023-05-14T07:01:43.530Z,61.72
2023-05-14T07:02:43.453Z,61.84
2023-05-14T07:03:43.590Z,61.88
2023-05-14T07:04:43.806Z,61.84
2023-05-14T07:05:43.911Z,62.05
2023-05-14T07:06:44.073Z,62.24
2023-05-14T07:07:44.276Z,62.20
2023-05-14T07:08:44.530Z,61.78
2023-05-14T07:09:44.531Z,61.28
2023-05-14T07:10:44.682Z,61.36
2023-05-14T07:11:44.837Z,61.79
2023-05-14T07:12:45.038Z,62.17
2023-05-14T07:13:45.141Z,62.03
2023-05-14T07:14:45.288Z,62.24
2023-05-14T07:15:45.598Z,61.37
2023-05-14T07:16:45.646Z,61.34
2023-05-14T07:17:45.785Z,61.82
2023-05-14T07:18:45.977Z,62.19
2023-05-14T07:19:46.104Z,62.35
2023-05-14T07:20:46.255Z,62.34
2023-05-14T07:21:46.553Z,62.23
2023-05-14T07:22:46.641Z,62.33
2023-05-14T07:23:46.736Z,62.42
2023-05-14T07:24:46.902Z,62.03
2023-05-14T07:25:46.984Z,61.77
2023-05-14T07:26:47.161Z,61.72
2023-05-14T07:27:47.306Z,61.33
2023-05-14T07:28:47.455Z,61.03
2023-05-14T07:29:47.621Z,61.05
2023-05-14T07:30:47.794Z,60.80
2023-05-14T07:31:48.049Z,60.39
2023-05-14T07:32:48.151Z,59.98
2023-05-14T07:33:48.379Z,60.35
2023-05-14T07:34:48.364Z,59.91
2023-05-14T07:35:48.506Z,59.94
2023-05-14T07:36:48.648Z,60.13
2023-05-14T07:37:48.776Z,59.26
2023-05-14T07:38:48.929Z,58.14
2023-05-14T07:39:49.124Z,57.78
2023-05-14T07:40:49.201Z,57.84
2023-05-14T07:41:49.359Z,57.66
2023-05-14T07:42:49.465Z,57.75
2023-05-14T07:43:49.686Z,57.88
2023-05-14T07:44:49.801Z,57.97
2023-05-14T07:45:50.027Z,57.95
2023-05-14T07:46:50.172Z,57.85
2023-05-14T07:47:50.273Z,57.84
2023-05-14T07:48:50.343Z,57.68
2023-05-14T07:49:50.557Z,57.77
2023-05-14T07:50:50.710Z,58.01
2023-05-14T07:51:50.748Z,58.08
2023-05-14T07:52:50.848Z,58.18
2023-05-14T07:53:51.053Z,57.73
2023-05-14T07:54:51.110Z,57.62
2023-05-14T07:55:51.263Z,56.98
2023-05-14T07:56:51.404Z,56.78
2023-05-14T07:57:51.567Z,57.00
2023-05-14T07:58:51.844Z,57.28
2023-05-14T07:59:51.838Z,57.46
2023-05-14T08:00:51.982Z,57.07
2023-05-14T08:01:52.149Z,57.15
2023-05-14T08:02:52.666Z,57.16
2023-05-14T08:03:52.507Z,57.20
2023-05-14T08:04:52.413Z,57.21
2023-05-14T08:05:52.485Z,57.59
2023-05-14T08:06:52.586Z,57.45
2023-05-14T08:07:52.399Z,56.91
2023-05-14T08:08:52.448Z,56.58
2023-05-14T08:09:52.549Z,56.72
2023-05-14T08:10:52.849Z,56.23
2023-05-14T08:11:52.565Z,56.03
2023-05-14T08:12:52.503Z,55.96
2023-05-14T08:13:52.497Z,55.08
2023-05-14T08:14:52.480Z,55.04
2023-05-14T08:15:52.457Z,54.84
2023-05-14T08:16:52.538Z,54.37
2023-05-14T08:17:52.515Z,53.69
2023-05-14T08:18:52.463Z,53.64
2023-05-14T08:19:52.560Z,54.29
2023-05-14T08:20:52.540Z,54.50
2023-05-14T08:21:52.807Z,53.31
2023-05-14T08:22:52.509Z,52.92
2023-05-14T08:23:52.550Z,52.68
2023-05-14T08:24:52.504Z,52.89
2023-05-14T08:25:52.477Z,52.62
2023-05-14T08:26:52.629Z,52.83
2023-05-14T08:27:52.616Z,52.52
2023-05-14T08:28:52.544Z,51.97
2023-05-14T08:29:52.558Z,52.15
2023-05-14T08:30:52.575Z,52.43
2023-05-14T08:31:52.592Z,53.37
2023-05-14T08:32:52.728Z,51.30
2023-05-14T08:33:52.564Z,50.50
2023-05-14T08:34:52.732Z,51.16
2023-05-14T08:35:52.663Z,50.33
2023-05-14T08:36:52.662Z,50.42
2023-05-14T08:37:52.725Z,50.28
2023-05-14T08:38:52.778Z,50.39
2023-05-14T08:39:52.756Z,50.62
2023-05-14T08:40:52.800Z,50.82
2023-05-14T08:41:52.868Z,50.76
2023-05-14T08:42:52.894Z,50.19
2023-05-14T08:43:53.386Z,50.37
2023-05-14T08:44:52.939Z,50.51
2023-05-14T08:45:52.944Z,50.20
2023-05-14T08:46:52.959Z,50.43
2023-05-14T08:47:53.085Z,50.50
2023-05-14T08:48:53.051Z,51.47
2023-05-14T08:49:53.056Z,50.61
2023-05-14T08:50:53.047Z,50.34
2023-05-14T08:51:53.008Z,51.15
2023-05-14T08:52:53.050Z,51.00
2023-05-14T08:53:52.978Z,50.54
2023-05-14T08:54:52.964Z,50.45
2023-05-14T08:55:53.000Z,51.43
2023-05-14T08:56:52.910Z,51.61
2023-05-14T08:57:52.953Z,51.40
2023-05-14T08:58:52.850Z,50.49
2023-05-14T08:59:52.886Z,50.33
2023-05-14T09:00:52.787Z,49.94
2023-05-14T09:01:52.783Z,49.13
2023-05-14T09:02:52.855Z,48.91
2023-05-14T09:03:52.895Z,49.06
2023-05-14T09:04:52.677Z,50.19
2023-05-14T09:05:52.635Z,50.96
2023-05-14T09:06:52.588Z,50.84
2023-05-14T09:07:52.595Z,50.60
2023-05-14T09:08:52.510Z,50.57
2023-05-14T09:09:52.558Z,50.49
2023-05-14T09:10:52.467Z,50.21
2023-05-14T09:11:52.444Z,50.49
2023-05-14T09:12:52.387Z,50.56
2023-05-14T09:13:52.327Z,50.47
2023-05-14T09:14:52.279Z,50.53
2023-05-14T09:15:52.295Z,50.75
2023-05-14T09:16:52.460Z,51.07
2023-05-14T09:17:52.278Z,50.91
2023-05-14T09:18:52.239Z,51.42
2023-05-14T09:19:52.133Z,51.30
2023-05-14T09:20:52.078Z,51.09
2023-05-14T09:21:51.987Z,51.19
2023-05-14T09:22:51.962Z,51.14
2023-05-14T09:23:51.881Z,50.89
2023-05-14T09:24:51.893Z,51.10
2023-05-14T09:25:51.812Z,51.10
2023-05-14T09:26:51.755Z,51.15
2023-05-14T09:27:51.811Z,49.51
2023-05-14T09:28:51.749Z,49.65
2023-05-14T09:29:51.651Z,49.75
2023-05-14T09:30:51.662Z,50.07
2023-05-14T09:31:51.764Z,51.00
2023-05-14T09:32:51.540Z,51.58
2023-05-14T09:33:51.640Z,51.88
2023-05-14T09:34:51.438Z,51.39
2023-05-14T09:35:51.397Z,51.11
2023-05-14T09:36:51.328Z,49.99
2023-05-14T09:37:51.350Z,50.00
2023-05-14T09:38:51.329Z,50.64
2023-05-14T09:39:51.364Z,50.62
2023-05-14T09:40:51.299Z,50.28
2023-05-14T09:41:51.268Z,50.33
2023-05-14T09:42:51.233Z,50.56
2023-05-14T09:43:51.220Z,50.63
2023-05-14T09:44:51.307Z,50.27
2023-05-14T09:45:51.244Z,50.57
2023-05-14T09:46:51.246Z,49.94
2023-05-14T09:47:51.254Z,49.52
2023-05-14T09:48:51.217Z,50.24
2023-05-14T09:49:51.129Z,50.35
2023-05-14T09:50:51.124Z,49.80
2023-05-14T09:51:51.121Z,49.40
2023-05-14T09:52:51.006Z,48.72
2023-05-14T09:53:51.065Z,48.42
2023-05-14T09:54:50.940Z,48.52
2023-05-14T09:55:50.986Z,48.25
2023-05-14T09:56:50.933Z,48.36
2023-05-14T09:57:51.064Z,49.02
2023-05-14T09:58:50.956Z,49.47
2023-05-14T09:59:50.919Z,48.98
2023-05-14T10:00:50.960Z,47.88
2023-05-14T10:01:50.902Z,47.16
2023-05-14T10:02:50.925Z,47.24
2023-05-14T10:03:50.943Z,46.98
2023-05-14T10:04:50.968Z,46.89
2023-05-14T10:05:50.866Z,48.06
2023-05-14T10:06:50.834Z,49.22
2023-05-14T10:07:50.858Z,48.61
2023-05-14T10:08:50.882Z,48.11
2023-05-14T10:09:50.942Z,46.54
2023-05-14T10:10:50.828Z,45.93
2023-05-14T10:11:50.847Z,45.92
2023-05-14T10:12:50.840Z,45.66
2023-05-14T10:13:50.825Z,46.11
2023-05-14T10:14:50.827Z,45.90
2023-05-14T10:15:50.805Z,46.61
2023-05-14T10:16:50.867Z,46.47
2023-05-14T10:17:50.822Z,46.42
2023-05-14T10:18:50.828Z,46.16
2023-05-14T10:19:50.795Z,46.08
2023-05-14T10:20:50.807Z,46.18
2023-05-14T10:21:50.747Z,45.92
2023-05-14T10:22:50.924Z,46.39
2023-05-14T10:23:50.837Z,47.18
2023-05-14T10:24:50.961Z,46.71
2023-05-14T10:25:51.066Z,46.59
2023-05-14T10:26:51.179Z,46.35
2023-05-14T10:27:51.309Z,45.84
2023-05-14T10:28:51.416Z,45.79
2023-05-14T10:29:51.529Z,45.90
2023-05-14T10:30:51.657Z,46.18
2023-05-14T10:31:51.754Z,45.37
2023-05-14T10:32:51.901Z,45.32
2023-05-14T10:33:52.018Z,43.67
2023-05-14T10:34:52.266Z,45.22
2023-05-14T10:35:52.258Z,44.91
2023-05-14T10:36:52.395Z,44.22
2023-05-14T10:37:52.514Z,44.67
2023-05-14T10:38:52.676Z,44.78
2023-05-14T10:39:52.729Z,45.64
2023-05-14T10:40:54.170Z,45.12
2023-05-14T10:41:52.839Z,44.51
2023-05-14T10:42:52.783Z,43.93
2023-05-14T10:43:52.727Z,44.57
2023-05-14T10:44:52.696Z,44.51
2023-05-14T10:45:52.736Z,44.88
2023-05-14T10:46:52.807Z,44.45
2023-05-14T10:47:52.819Z,43.99
2023-05-14T10:48:52.674Z,44.10
2023-05-14T10:49:52.680Z,44.34
2023-05-14T10:50:52.725Z,44.79
2023-05-14T10:51:52.646Z,45.14
2023-05-14T10:52:52.704Z,44.96
2023-05-14T10:53:52.741Z,43.56
2023-05-14T10:54:52.757Z,43.85
2023-05-14T10:55:52.631Z,43.72
2023-05-14T10:56:52.614Z,43.51
2023-05-14T10:57:52.547Z,43.70
2023-05-14T10:58:52.570Z,43.88
2023-05-14T10:59:52.513Z,43.40
2023-05-14T11:00:52.523Z,43.16
2023-05-14T11:01:52.473Z,43.72
2023-05-14T11:02:52.465Z,43.30
2023-05-14T11:03:52.493Z,43.88
2023-05-14T11:04:52.414Z,43.17
2023-05-14T11:05:52.385Z,43.89
2023-05-14T11:06:52.397Z,42.94
2023-05-14T11:07:52.387Z,42.62
2023-05-14T11:08:52.387Z,42.80
2023-05-14T11:09:52.399Z,43.45
2023-05-14T11:10:52.429Z,43.45
2023-05-14T11:11:52.423Z,42.60
2023-05-14T11:12:52.411Z,42.39
2023-05-14T11:13:52.409Z,42.73
2023-05-14T11:14:52.824Z,41.99
2023-05-14T11:15:52.415Z,42.44
2023-05-14T11:16:52.400Z,41.87
2023-05-14T11:17:52.356Z,41.18
2023-05-14T11:18:52.285Z,41.25
2023-05-14T11:19:52.334Z,40.88
2023-05-14T11:20:52.600Z,40.88
2023-05-14T11:21:52.622Z,41.60
2023-05-14T11:22:52.715Z,41.43
2023-05-14T11:23:52.777Z,42.75
2023-05-14T11:24:52.848Z,41.51
2023-05-14T11:25:53.028Z,41.36
2023-05-14T11:26:53.096Z,41.31
2023-05-14T11:27:53.243Z,40.13
2023-05-14T11:28:53.302Z,39.76
2023-05-14T11:29:53.503Z,40.20
2023-05-14T11:30:53.728Z,40.32
2023-05-14T11:31:53.878Z,40.23
2023-05-14T11:32:53.895Z,41.34
2023-05-14T11:33:54.026Z,41.33
2023-05-14T11:34:54.186Z,39.76
2023-05-14T11:35:54.191Z,39.39
2023-05-14T11:36:54.353Z,39.70
2023-05-14T11:37:54.481Z,39.53
2023-05-14T11:38:54.610Z,39.47
2023-05-14T11:39:54.719Z,39.98
2023-05-14T11:40:54.781Z,38.71
2023-05-14T11:41:54.895Z,38.51
2023-05-14T11:42:55.109Z,39.17
2023-05-14T11:43:55.089Z,39.68
2023-05-14T11:44:55.260Z,40.55
2023-05-14T11:45:55.515Z,39.38
2023-05-14T11:46:55.462Z,40.22
2023-05-14T11:47:55.626Z,40.40
2023-05-14T11:48:55.623Z,40.21
2023-05-14T11:49:55.784Z,40.61
2023-05-14T11:50:55.897Z,40.69
2023-05-14T11:51:55.981Z,40.76
2023-05-14T11:52:56.096Z,40.37
2023-05-14T11:53:56.208Z,39.98
2023-05-14T11:54:56.294Z,40.21
2023-05-14T11:55:56.505Z,40.47
2023-05-14T11:56:56.546Z,40.47
2023-05-14T11:57:56.619Z,40.34
2023-05-14T11:58:56.723Z,39.60
2023-05-14T11:59:56.824Z,39.71
2023-05-14T12:00:56.903Z,39.79
2023-05-14T12:01:57.024Z,41.02
2023-05-14T12:02:57.231Z,40.87
2023-05-14T12:03:57.292Z,40.50
2023-05-14T12:04:57.331Z,40.41
2023-05-14T12:05:57.341Z,40.22
2023-05-14T12:06:57.469Z,40.65
2023-05-14T12:07:57.606Z,40.82
2023-05-14T12:08:57.572Z,40.51
2023-05-14T12:09:57.522Z,40.36
2023-05-14T12:10:57.452Z,40.62
2023-05-14T12:11:57.555Z,41.72
2023-05-14T12:12:57.416Z,43.20
2023-05-14T12:13:57.357Z,42.09
2023-05-14T12:14:57.275Z,41.79
2023-05-14T12:15:57.358Z,43.33
2023-05-14T12:16:57.440Z,44.19
2023-05-14T12:17:57.648Z,43.88
2023-05-14T12:18:57.739Z,44.25
2023-05-14T12:19:57.837Z,45.05
2023-05-14T12:20:58.078Z,43.14
2023-05-14T12:21:58.073Z,43.70
2023-05-14T12:22:58.272Z,44.27
2023-05-14T12:23:58.329Z,44.01
2023-05-14T12:24:58.432Z,44.10
2023-05-14T12:25:58.521Z,43.41
2023-05-14T12:26:58.682Z,41.93
2023-05-14T12:27:58.822Z,40.99
2023-05-14T12:28:58.910Z,40.53
2023-05-14T12:30:09.349Z,39.41
2023-05-14T12:30:59.919Z,38.96
2023-05-14T12:31:58.858Z,38.57
2023-05-14T12:32:58.689Z,37.46
2023-05-14T12:33:58.558Z,36.98
2023-05-14T12:34:58.436Z,37.31
2023-05-14T12:36:00.510Z,39.11
2023-05-14T12:36:59.224Z,36.53
2023-05-14T12:37:58.188Z,36.06
2023-05-14T12:38:58.000Z,36.59
2023-05-14T12:39:57.850Z,36.55
2023-05-14T12:40:57.767Z,38.09
2023-05-14T12:41:57.652Z,40.82
2023-05-14T12:42:57.552Z,42.48
2023-05-14T12:43:57.465Z,42.95
2023-05-14T12:44:57.365Z,43.64
2023-05-14T12:45:57.344Z,44.18
2023-05-14T12:46:57.504Z,44.56
2023-05-14T12:47:57.198Z,44.14
2023-05-14T12:48:57.085Z,44.16
2023-05-14T12:49:57.108Z,45.30
2023-05-14T12:50:57.086Z,45.00
2023-05-14T12:52:13.209Z,45.80
2023-05-14T12:52:57.989Z,46.67
2023-05-14T12:53:56.762Z,46.95